createdAt,value
2018-07-26T04:00:34.189Z,982.00
2018-07-26T04:01:34.124Z,982.05
2018-07-26T04:02:34.116Z,982.06
2018-07-26T04:03:34.106Z,982.07
2018-07-26T04:04:34.086Z,982.10
2018-07-26T04:05:34.165Z,982.08
2018-07-26T04:06:34.062Z,982.09
2018-07-26T04:07:34.052Z,982.05
2018-07-26T04:08:34.045Z,982.04
2018-07-26T04:09:34.031Z,982.01
2018-07-26T04:10:34.021Z,982.04
2018-07-26T04:11:34.018Z,981.99
2018-07-26T04:12:33.993Z,981.99
2018-07-26T04:13:33.985Z,981.97
2018-07-26T04:14:33.977Z,982.05
2018-07-26T04:15:33.984Z,982.03
2018-07-26T04:16:33.961Z,981.99
2018-07-26T04:17:33.945Z,982.04
2018-07-26T04:18:33.930Z,982.02
2018-07-26T04:19:33.919Z,982.04
2018-07-26T04:20:33.904Z,982.03
2018-07-26T04:21:33.916Z,982.05
2018-07-26T04:22:33.886Z,982.02
2018-07-26T04:23:33.873Z,982.01
2018-07-26T04:24:33.864Z,982.06
2018-07-26T04:25:33.850Z,982.03
2018-07-26T04:26:33.839Z,982.04
2018-07-26T04:27:33.845Z,981.98
2018-07-26T04:28:33.820Z,982.00
2018-07-26T04:29:33.816Z,981.97
2018-07-26T04:30:33.797Z,981.95
2018-07-26T04:31:33.785Z,981.96
2018-07-26T04:32:33.787Z,981.99
2018-07-26T04:33:33.764Z,982.01
2018-07-26T04:34:33.786Z,981.99
2018-07-26T04:35:33.749Z,981.98
2018-07-26T04:36:33.736Z,982.05
2018-07-26T04:37:33.752Z,982.01
2018-07-26T04:38:33.715Z,982.01
2018-07-26T04:39:33.715Z,981.98
2018-07-26T04:40:33.689Z,982.02
2018-07-26T04:41:33.674Z,982.03
2018-07-26T04:42:33.667Z,982.04
2018-07-26T04:43:33.663Z,982.03
2018-07-26T04:44:33.649Z,982.02
2018-07-26T04:45:33.634Z,982.05
2018-07-26T04:46:33.619Z,982.02
2018-07-26T04:47:33.612Z,982.02
2018-07-26T04:48:33.618Z,982.02
2018-07-26T04:49:33.598Z,982.02
2018-07-26T04:50:33.580Z,982.01
2018-07-26T04:51:33.571Z,982.01
2018-07-26T04:52:33.555Z,982.01
2018-07-26T04:53:33.555Z,982.02
2018-07-26T04:54:33.570Z,981.99
2018-07-26T04:55:33.522Z,982.04
2018-07-26T04:56:33.515Z,982.07
2018-07-26T04:57:33.509Z,982.05
2018-07-26T04:58:33.505Z,982.07
2018-07-26T04:59:33.478Z,982.07
2018-07-26T05:00:33.467Z,982.06
2018-07-26T05:01:33.456Z,982.07
2018-07-26T05:02:33.450Z,982.07
2018-07-26T05:03:33.444Z,982.10
2018-07-26T05:04:33.426Z,982.15
2018-07-26T05:05:33.416Z,982.14
2018-07-26T05:06:33.409Z,982.20
2018-07-26T05:07:33.389Z,982.15
2018-07-26T05:08:33.411Z,982.17
2018-07-26T05:09:33.372Z,982.19
2018-07-26T05:10:33.356Z,982.20
2018-07-26T05:11:33.346Z,982.22
2018-07-26T05:12:33.341Z,982.21
2018-07-26T05:13:33.325Z,982.24
2018-07-26T05:14:33.330Z,982.27
2018-07-26T05:15:33.307Z,982.20
2018-07-26T05:16:33.294Z,982.19
2018-07-26T05:17:33.282Z,982.21
2018-07-26T05:18:33.336Z,982.18
2018-07-26T05:19:33.269Z,982.22
2018-07-26T05:20:33.247Z,982.18
2018-07-26T05:21:33.235Z,982.19
2018-07-26T05:22:33.224Z,982.19
2018-07-26T05:23:33.228Z,982.21
2018-07-26T05:24:33.216Z,982.21
2018-07-26T05:25:33.192Z,982.21
2018-07-26T05:26:33.182Z,982.23
2018-07-26T05:27:33.174Z,982.22
2018-07-26T05:28:33.190Z,982.26
2018-07-26T05:29:33.165Z,982.23
2018-07-26T05:30:33.140Z,982.21
2018-07-26T05:31:33.127Z,982.28
2018-07-26T05:32:33.130Z,982.26
2018-07-26T05:33:33.125Z,982.28
2018-07-26T05:34:33.093Z,982.23
2018-07-26T05:35:33.095Z,982.18
2018-07-26T05:36:33.072Z,982.25
2018-07-26T05:37:33.094Z,982.24
2018-07-26T05:38:33.047Z,982.23
2018-07-26T05:39:33.039Z,982.25
2018-07-26T05:40:33.036Z,982.23
2018-07-26T05:41:33.020Z,982.24
2018-07-26T05:42:33.005Z,982.25
2018-07-26T05:43:32.995Z,982.29
2018-07-26T05:44:32.986Z,982.29
2018-07-26T05:45:32.987Z,982.33
2018-07-26T05:46:32.964Z,982.32
2018-07-26T05:47:32.963Z,982.29
2018-07-26T05:48:32.937Z,982.31
2018-07-26T05:49:32.926Z,982.33
2018-07-26T05:50:32.927Z,982.30
2018-07-26T05:51:32.910Z,982.29
2018-07-26T05:52:32.901Z,982.33
2018-07-26T05:53:32.899Z,982.33
2018-07-26T05:54:32.881Z,982.34
2018-07-26T05:55:32.874Z,982.34
2018-07-26T05:56:32.854Z,982.34
2018-07-26T05:57:32.842Z,982.33
2018-07-26T05:58:32.828Z,982.34
2018-07-26T05:59:32.832Z,982.36
2018-07-26T06:00:32.816Z,982.37
2018-07-26T06:01:32.806Z,982.35
2018-07-26T06:02:32.785Z,982.36
2018-07-26T06:03:32.773Z,982.34
2018-07-26T06:04:32.764Z,982.40
2018-07-26T06:05:32.764Z,982.36
2018-07-26T06:06:32.746Z,982.34
2018-07-26T06:07:32.731Z,982.33
2018-07-26T06:08:32.722Z,982.34
2018-07-26T06:09:32.711Z,982.42
2018-07-26T06:10:32.715Z,982.39
2018-07-26T06:11:32.691Z,982.37
2018-07-26T06:12:32.677Z,982.44
2018-07-26T06:13:32.662Z,982.37
2018-07-26T06:14:32.655Z,982.41
2018-07-26T06:15:32.650Z,982.35
2018-07-26T06:16:32.634Z,982.42
2018-07-26T06:17:32.626Z,982.34
2018-07-26T06:18:32.611Z,982.38
2018-07-26T06:19:32.596Z,982.39
2018-07-26T06:20:32.628Z,982.35
2018-07-26T06:21:32.576Z,982.37
2018-07-26T06:22:32.572Z,982.35
2018-07-26T06:23:32.557Z,982.41
2018-07-26T06:24:32.540Z,982.36
2018-07-26T06:25:32.530Z,982.38
2018-07-26T06:26:32.531Z,982.40
2018-07-26T06:27:32.511Z,982.38
2018-07-26T06:28:32.498Z,982.32
2018-07-26T06:29:32.485Z,982.28
2018-07-26T06:30:32.477Z,982.29
2018-07-26T06:31:32.476Z,982.31
2018-07-26T06:32:32.455Z,982.33
2018-07-26T06:33:32.461Z,982.32
2018-07-26T06:34:32.455Z,982.35
2018-07-26T06:35:32.423Z,982.40
2018-07-26T06:36:32.427Z,982.38
2018-07-26T06:37:32.398Z,982.40
2018-07-26T06:38:32.387Z,982.39
2018-07-26T06:39:32.472Z,982.37
2018-07-26T06:40:32.368Z,982.35
2018-07-26T06:41:32.372Z,982.35
2018-07-26T06:42:32.346Z,982.38
2018-07-26T06:43:32.338Z,982.39
2018-07-26T06:44:32.322Z,982.39
2018-07-26T06:45:32.309Z,982.34
2018-07-26T06:46:32.313Z,982.34
2018-07-26T06:47:32.285Z,982.31
2018-07-26T06:48:32.282Z,982.33
2018-07-26T06:49:32.269Z,982.36
2018-07-26T06:50:32.258Z,982.37
2018-07-26T06:51:32.276Z,982.36
2018-07-26T06:52:32.230Z,982.28
2018-07-26T06:53:32.222Z,982.33
2018-07-26T06:54:32.209Z,982.29
2018-07-26T06:55:32.198Z,982.27
2018-07-26T06:56:32.202Z,982.29
2018-07-26T06:57:32.181Z,982.36
2018-07-26T06:58:32.168Z,982.30
2018-07-26T06:59:32.155Z,982.28
2018-07-26T07:00:32.149Z,982.32
2018-07-26T07:01:32.154Z,982.27
2018-07-26T07:02:32.127Z,982.30
2018-07-26T07:03:32.112Z,982.30
2018-07-26T07:04:32.114Z,982.34
2018-07-26T07:05:32.092Z,982.34
2018-07-26T07:06:32.119Z,982.34
2018-07-26T07:07:32.079Z,982.35
2018-07-26T07:08:32.061Z,982.29
2018-07-26T07:09:32.049Z,982.31
2018-07-26T07:10:32.038Z,982.28
2018-07-26T07:11:32.029Z,982.27
2018-07-26T07:12:32.029Z,982.28
2018-07-26T07:13:32.010Z,982.27
2018-07-26T07:14:31.998Z,982.33
2018-07-26T07:15:31.986Z,982.32
2018-07-26T07:16:31.973Z,982.33
2018-07-26T07:17:31.975Z,982.29
2018-07-26T07:18:31.953Z,982.32
2018-07-26T07:19:31.942Z,982.32
2018-07-26T07:20:31.962Z,982.33
2018-07-26T07:21:31.923Z,982.34
2018-07-26T07:22:31.921Z,982.29
2018-07-26T07:23:31.898Z,982.30
2018-07-26T07:24:31.890Z,982.33
2018-07-26T07:25:31.879Z,982.28
2018-07-26T07:26:31.866Z,982.33
2018-07-26T07:27:31.872Z,982.26
2018-07-26T07:28:31.847Z,982.29
2018-07-26T07:29:31.835Z,982.34
2018-07-26T07:30:31.824Z,982.37
2018-07-26T07:31:31.820Z,982.32
2018-07-26T07:32:31.818Z,982.32
2018-07-26T07:33:31.797Z,982.32
2018-07-26T07:34:31.788Z,982.25
2018-07-26T07:35:31.797Z,982.25
2018-07-26T07:36:31.760Z,982.31
2018-07-26T07:37:31.784Z,982.23
2018-07-26T07:38:31.740Z,982.27
2018-07-26T07:39:31.728Z,982.27
2018-07-26T07:40:31.717Z,982.34
2018-07-26T07:41:31.707Z,982.25
2018-07-26T07:42:31.696Z,982.25
2018-07-26T07:43:31.697Z,982.28
2018-07-26T07:44:31.677Z,982.30
2018-07-26T07:45:31.664Z,982.29
2018-07-26T07:46:31.668Z,982.33
2018-07-26T07:47:31.684Z,982.34
2018-07-26T07:48:31.645Z,982.35
2018-07-26T07:49:31.627Z,982.34
2018-07-26T07:50:31.610Z,982.34
2018-07-26T07:51:31.600Z,982.34
2018-07-26T07:52:31.592Z,982.41
2018-07-26T07:53:31.592Z,982.41
2018-07-26T07:54:31.571Z,982.36
2018-07-26T07:55:31.556Z,982.41
2018-07-26T07:56:31.547Z,982.39
2018-07-26T07:57:31.537Z,982.42
2018-07-26T07:58:31.541Z,982.41
2018-07-26T07:59:31.560Z,982.38
2018-07-26T08:00:31.504Z,982.41
2018-07-26T08:01:31.492Z,982.40
2018-07-26T08:02:31.482Z,982.40
2018-07-26T08:03:31.482Z,982.45
2018-07-26T08:04:31.462Z,982.44
2018-07-26T08:05:31.455Z,982.42
2018-07-26T08:06:31.473Z,982.43
2018-07-26T08:07:31.429Z,982.47
2018-07-26T08:08:31.436Z,982.39
2018-07-26T08:09:31.407Z,982.39
2018-07-26T08:10:31.397Z,982.34
2018-07-26T08:11:31.395Z,982.36
2018-07-26T08:12:31.450Z,982.42
2018-07-26T08:13:31.368Z,982.39
2018-07-26T08:14:31.363Z,982.36
2018-07-26T08:15:31.343Z,982.36
2018-07-26T08:16:31.333Z,982.33
2018-07-26T08:17:31.326Z,982.39
2018-07-26T08:18:31.311Z,982.42
2018-07-26T08:19:31.310Z,982.42
2018-07-26T08:20:31.288Z,982.35
2018-07-26T08:21:31.282Z,982.43
2018-07-26T08:22:31.270Z,982.40
2018-07-26T08:23:31.259Z,982.40
2018-07-26T08:24:31.256Z,982.40
2018-07-26T08:25:31.235Z,982.44
2018-07-26T08:26:31.226Z,982.42
2018-07-26T08:27:31.215Z,982.38
2018-07-26T08:28:31.204Z,982.38
2018-07-26T08:29:31.261Z,982.33
2018-07-26T08:30:31.188Z,982.38
2018-07-26T08:31:31.174Z,982.31
2018-07-26T08:32:31.162Z,982.34
2018-07-26T08:33:31.151Z,982.38
2018-07-26T08:34:31.157Z,982.42
2018-07-26T08:35:31.130Z,982.35
2018-07-26T08:36:31.120Z,982.40
2018-07-26T08:37:31.115Z,982.36
2018-07-26T08:38:31.103Z,982.36
2018-07-26T08:39:31.101Z,982.43
2018-07-26T08:40:31.081Z,982.40
2018-07-26T08:41:31.068Z,982.37
2018-07-26T08:42:31.054Z,982.38
2018-07-26T08:43:31.070Z,982.42
2018-07-26T08:44:31.049Z,982.35
2018-07-26T08:45:31.022Z,982.39
2018-07-26T08:46:31.013Z,982.35
2018-07-26T08:47:31.004Z,982.35
2018-07-26T08:48:30.991Z,982.33
2018-07-26T08:49:30.993Z,982.37
2018-07-26T08:50:30.973Z,982.35
2018-07-26T08:51:30.957Z,982.31
2018-07-26T08:52:30.949Z,982.33
2018-07-26T08:53:30.939Z,982.38
2018-07-26T08:54:30.941Z,982.32
2018-07-26T08:55:30.917Z,982.30
2018-07-26T08:56:30.907Z,982.28
2018-07-26T08:57:30.895Z,982.33
2018-07-26T08:58:30.885Z,982.31
2018-07-26T08:59:30.884Z,982.28
2018-07-26T09:00:30.864Z,982.26
2018-07-26T09:01:30.861Z,982.30
2018-07-26T09:02:30.843Z,982.28
2018-07-26T09:03:30.837Z,982.29
2018-07-26T09:04:30.832Z,982.36
2018-07-26T09:05:30.925Z,982.31
2018-07-26T09:06:30.805Z,982.29
2018-07-26T09:07:30.792Z,982.29
2018-07-26T09:08:30.780Z,982.22
2018-07-26T09:09:30.782Z,982.30
2018-07-26T09:10:30.772Z,982.21
2018-07-26T09:11:30.754Z,982.19
2018-07-26T09:12:30.736Z,982.20
2018-07-26T09:13:30.807Z,982.26
2018-07-26T09:14:30.752Z,982.28
2018-07-26T09:15:30.717Z,982.17
2018-07-26T09:16:30.703Z,982.10
2018-07-26T09:17:30.701Z,982.16
2018-07-26T09:18:30.675Z,982.11
2018-07-26T09:19:30.676Z,982.11
2018-07-26T09:20:31.098Z,982.13
2018-07-26T09:21:30.642Z,982.13
2018-07-26T09:22:30.636Z,982.10
2018-07-26T09:23:30.620Z,982.11
2018-07-26T09:24:30.657Z,982.14
2018-07-26T09:25:30.609Z,982.08
2018-07-26T09:26:30.597Z,982.07
2018-07-26T09:27:30.582Z,982.03
2018-07-26T09:28:30.564Z,982.08
2018-07-26T09:29:30.555Z,982.01
2018-07-26T09:30:30.565Z,982.05
2018-07-26T09:31:30.540Z,982.05
2018-07-26T09:32:30.525Z,982.07
2018-07-26T09:33:30.516Z,982.03
2018-07-26T09:34:30.501Z,981.94
2018-07-26T09:35:30.567Z,981.97
2018-07-26T09:36:30.483Z,981.95
2018-07-26T09:37:30.469Z,981.95
2018-07-26T09:38:30.459Z,981.97
2018-07-26T09:39:30.452Z,981.98
2018-07-26T09:40:30.449Z,981.97
2018-07-26T09:41:30.428Z,981.94
2018-07-26T09:42:30.416Z,981.91
2018-07-26T09:43:30.406Z,981.88
2018-07-26T09:44:30.396Z,981.90
2018-07-26T09:45:30.399Z,981.86
2018-07-26T09:46:30.373Z,981.98
2018-07-26T09:47:30.363Z,981.86
2018-07-26T09:48:30.358Z,981.86
2018-07-26T09:49:30.346Z,981.88
2018-07-26T09:50:30.333Z,981.86
2018-07-26T09:51:30.335Z,981.88
2018-07-26T09:52:30.319Z,981.78
2018-07-26T09:53:30.300Z,981.79
2018-07-26T09:54:30.290Z,981.79
2018-07-26T09:55:30.283Z,981.83
2018-07-26T09:56:30.284Z,981.68
2018-07-26T09:57:30.291Z,981.78
2018-07-26T09:58:30.246Z,981.72
2018-07-26T09:59:30.243Z,981.85
2018-07-26T10:00:30.226Z,981.83
2018-07-26T10:01:30.229Z,981.79
2018-07-26T10:02:30.248Z,981.78
2018-07-26T10:03:30.196Z,981.73
2018-07-26T10:04:30.185Z,981.75
2018-07-26T10:05:30.174Z,981.72
2018-07-26T10:06:30.176Z,981.75
2018-07-26T10:07:30.153Z,981.76
2018-07-26T10:08:30.146Z,981.77
2018-07-26T10:09:30.133Z,981.77
2018-07-26T10:10:30.123Z,981.82
2018-07-26T10:11:30.125Z,981.78
2018-07-26T10:12:31.868Z,981.73
2018-07-26T10:13:30.091Z,981.85
2018-07-26T10:14:30.081Z,981.82
2018-07-26T10:15:30.069Z,981.70
2018-07-26T10:16:30.074Z,981.69
2018-07-26T10:17:30.067Z,981.75
2018-07-26T10:18:30.068Z,981.73
2018-07-26T10:19:30.024Z,981.72
2018-07-26T10:20:30.018Z,981.65
2018-07-26T10:21:30.023Z,981.60
2018-07-26T10:22:29.998Z,981.64
2018-07-26T10:23:29.985Z,981.63
2018-07-26T10:24:29.973Z,981.67
2018-07-26T10:25:29.969Z,981.68
2018-07-26T10:26:29.966Z,981.63
2018-07-26T10:27:29.940Z,981.65
2018-07-26T10:28:29.946Z,981.62
2018-07-26T10:29:29.922Z,981.59
2018-07-26T10:30:29.909Z,981.57
2018-07-26T10:31:29.908Z,981.59
2018-07-26T10:32:29.886Z,981.56
2018-07-26T10:33:29.876Z,981.58
2018-07-26T10:34:29.864Z,981.52
2018-07-26T10:35:29.858Z,981.49
2018-07-26T10:36:29.853Z,981.53
2018-07-26T10:37:29.868Z,981.60
2018-07-26T10:38:29.823Z,981.62
2018-07-26T10:39:29.917Z,981.58
2018-07-26T10:40:29.801Z,981.55
2018-07-26T10:41:29.791Z,981.55
2018-07-26T10:42:29.813Z,981.56
2018-07-26T10:43:29.776Z,981.53
2018-07-26T10:44:29.783Z,981.50
2018-07-26T10:45:29.898Z,981.49
2018-07-26T10:46:29.745Z,981.50
2018-07-26T10:47:29.738Z,981.56
2018-07-26T10:48:29.724Z,981.55
2018-07-26T10:49:29.708Z,981.55
2018-07-26T10:50:29.701Z,981.64
2018-07-26T10:51:29.689Z,981.54
2018-07-26T10:52:29.683Z,981.46
2018-07-26T10:53:29.671Z,981.45
2018-07-26T10:54:29.658Z,981.45
2018-07-26T10:55:29.654Z,981.49
2018-07-26T10:56:29.634Z,981.50
2018-07-26T10:57:29.638Z,981.51
2018-07-26T10:58:29.610Z,981.54
2018-07-26T10:59:29.599Z,981.56
2018-07-26T11:00:29.589Z,981.53
2018-07-26T11:01:29.576Z,981.45
2018-07-26T11:02:29.574Z,981.45
2018-07-26T11:03:29.562Z,981.46
2018-07-26T11:04:29.549Z,981.42
2018-07-26T11:05:29.535Z,981.39
2018-07-26T11:06:29.527Z,981.36
2018-07-26T11:07:29.540Z,981.43
2018-07-26T11:08:29.513Z,981.41
2018-07-26T11:09:29.506Z,981.43
2018-07-26T11:10:29.487Z,981.40
2018-07-26T11:11:29.472Z,981.47
2018-07-26T11:12:29.472Z,981.39
2018-07-26T11:13:29.460Z,981.40
2018-07-26T11:14:29.444Z,981.45
2018-07-26T11:15:29.429Z,981.39
2018-07-26T11:16:29.467Z,981.43
2018-07-26T11:17:29.429Z,981.37
2018-07-26T11:18:29.394Z,981.32
2018-07-26T11:19:29.385Z,981.30
2018-07-26T11:20:29.379Z,981.27
2018-07-26T11:21:29.369Z,981.30
2018-07-26T11:22:29.352Z,981.36
2018-07-26T11:23:29.355Z,981.38
2018-07-26T11:24:29.334Z,981.34
2018-07-26T11:25:29.347Z,981.34
2018-07-26T11:26:29.310Z,981.35
2018-07-26T11:27:29.299Z,981.38
2018-07-26T11:28:29.302Z,981.33
2018-07-26T11:29:29.279Z,981.33
2018-07-26T11:30:29.268Z,981.27
2018-07-26T11:31:29.257Z,981.33
2018-07-26T11:32:29.300Z,981.30
2018-07-26T11:33:29.247Z,981.29
2018-07-26T11:34:29.224Z,981.37
2018-07-26T11:35:29.215Z,981.35
2018-07-26T11:36:29.202Z,981.28
2018-07-26T11:37:29.193Z,981.32
2018-07-26T11:38:29.194Z,981.36
2018-07-26T11:39:29.175Z,981.31
2018-07-26T11:40:29.163Z,981.34
2018-07-26T11:41:29.204Z,981.32
2018-07-26T11:42:29.139Z,981.30
2018-07-26T11:43:29.158Z,981.30
2018-07-26T11:44:29.120Z,981.30
2018-07-26T11:45:29.110Z,981.28
2018-07-26T11:46:29.192Z,981.23
2018-07-26T11:47:29.088Z,981.28
2018-07-26T11:48:29.085Z,981.23
2018-07-26T11:49:29.067Z,981.28
2018-07-26T11:50:29.054Z,981.39
2018-07-26T11:51:29.041Z,981.45
2018-07-26T11:52:29.068Z,981.33
2018-07-26T11:53:29.069Z,981.33
2018-07-26T11:54:29.010Z,981.32
2018-07-26T11:55:29.005Z,981.26
2018-07-26T11:56:28.989Z,981.24
2018-07-26T11:57:28.978Z,981.21
2018-07-26T11:58:28.980Z,981.18
2018-07-26T11:59:28.959Z,981.11
2018-07-26T12:00:28.947Z,981.11
2018-07-26T12:01:29.053Z,981.10
2018-07-26T12:02:29.007Z,981.14
2018-07-26T12:03:28.997Z,981.15
2018-07-26T12:04:28.903Z,981.21
2018-07-26T12:05:28.893Z,981.25
2018-07-26T12:06:28.884Z,981.31
2018-07-26T12:07:28.905Z,981.17
2018-07-26T12:08:28.862Z,981.21
2018-07-26T12:09:28.881Z,981.22
2018-07-26T12:10:28.840Z,981.16
2018-07-26T12:11:28.863Z,981.05
2018-07-26T12:12:28.819Z,981.00
2018-07-26T12:13:28.828Z,980.98
2018-07-26T12:14:28.897Z,980.98
2018-07-26T12:15:28.800Z,980.94
2018-07-26T12:16:28.819Z,980.85
2018-07-26T12:17:29.203Z,981.00
2018-07-26T12:18:28.838Z,980.98
2018-07-26T12:19:29.047Z,980.94
2018-07-26T12:20:28.849Z,980.93
2018-07-26T12:21:28.804Z,980.96
2018-07-26T12:22:28.749Z,980.87
2018-07-26T12:23:28.765Z,980.83
2018-07-26T12:24:28.692Z,980.85
2018-07-26T12:25:28.820Z,980.86
2018-07-26T12:26:28.696Z,980.88
2018-07-26T12:27:28.658Z,980.86
2018-07-26T12:28:28.654Z,980.86
2018-07-26T12:29:28.638Z,980.85
2018-07-26T12:30:28.638Z,980.83
2018-07-26T12:31:28.619Z,980.81
2018-07-26T12:32:28.608Z,980.83
2018-07-26T12:33:28.593Z,980.84
2018-07-26T12:34:28.583Z,980.80
2018-07-26T12:35:28.581Z,980.78
2018-07-26T12:36:28.563Z,980.78
2018-07-26T12:37:28.551Z,980.78
2018-07-26T12:38:28.541Z,980.79
2018-07-26T12:39:28.529Z,980.78
2018-07-26T12:40:28.528Z,980.83
2018-07-26T12:41:28.572Z,980.79
2018-07-26T12:42:28.498Z,980.75
2018-07-26T12:43:28.491Z,980.73
2018-07-26T12:44:28.477Z,980.76
2018-07-26T12:45:28.484Z,980.80
2018-07-26T12:46:28.457Z,980.75
2018-07-26T12:47:28.507Z,980.82
2018-07-26T12:48:28.436Z,980.75
2018-07-26T12:49:28.422Z,980.83
2018-07-26T12:50:28.423Z,980.72
2018-07-26T12:51:28.401Z,980.69
2018-07-26T12:52:28.393Z,980.74
2018-07-26T12:53:28.380Z,980.69
2018-07-26T12:54:28.370Z,980.74
2018-07-26T12:55:28.399Z,980.75
2018-07-26T12:56:28.347Z,980.84
2018-07-26T12:57:28.338Z,980.78
2018-07-26T12:58:28.327Z,980.72
2018-07-26T12:59:28.314Z,980.64
2018-07-26T13:00:28.306Z,980.58
2018-07-26T13:01:28.321Z,980.64
2018-07-26T13:02:28.292Z,980.65
2018-07-26T13:03:28.273Z,980.53
2018-07-26T13:04:28.264Z,980.59
2018-07-26T13:05:28.260Z,980.49
2018-07-26T13:06:28.258Z,980.52
2018-07-26T13:07:28.230Z,980.54
2018-07-26T13:08:28.223Z,980.52
2018-07-26T13:09:28.212Z,980.50
2018-07-26T13:10:28.199Z,980.50
2018-07-26T13:11:28.203Z,980.49
2018-07-26T13:12:28.208Z,980.43
2018-07-26T13:13:28.169Z,980.43
2018-07-26T13:14:28.156Z,980.49
2018-07-26T13:15:28.147Z,980.42
2018-07-26T13:16:28.148Z,980.41
2018-07-26T13:17:28.125Z,980.47
2018-07-26T13:18:28.116Z,980.44
2018-07-26T13:19:28.102Z,980.45
2018-07-26T13:20:28.094Z,980.43
2018-07-26T13:21:28.098Z,980.41
2018-07-26T13:22:28.071Z,980.34
2018-07-26T13:23:28.062Z,980.32
2018-07-26T13:24:28.050Z,980.34
2018-07-26T13:25:28.040Z,980.42
2018-07-26T13:26:28.042Z,980.56
2018-07-26T13:27:28.024Z,980.50
2018-07-26T13:28:28.008Z,980.48
2018-07-26T13:29:27.996Z,980.52
2018-07-26T13:30:27.990Z,980.45
2018-07-26T13:31:27.988Z,980.47
2018-07-26T13:32:27.964Z,980.48
2018-07-26T13:33:27.955Z,980.52
2018-07-26T13:34:27.942Z,980.50
2018-07-26T13:35:27.934Z,980.50
2018-07-26T13:36:27.937Z,980.51
2018-07-26T13:37:27.917Z,980.42
2018-07-26T13:38:27.903Z,980.38
2018-07-26T13:39:27.894Z,980.40
2018-07-26T13:40:27.882Z,980.39
2018-07-26T13:41:27.869Z,980.38
2018-07-26T13:42:27.873Z,980.46
2018-07-26T13:43:27.851Z,980.44
2018-07-26T13:44:27.849Z,980.46
2018-07-26T13:45:27.825Z,980.39
2018-07-26T13:46:27.817Z,980.42
2018-07-26T13:47:27.814Z,980.42
2018-07-26T13:48:27.796Z,980.37
2018-07-26T13:49:27.782Z,980.38
2018-07-26T13:50:27.781Z,980.38
2018-07-26T13:51:27.762Z,980.36
2018-07-26T13:52:27.866Z,980.33
2018-07-26T13:53:27.747Z,980.31
2018-07-26T13:54:27.734Z,980.23
2018-07-26T13:55:27.724Z,980.22
2018-07-26T13:56:27.712Z,980.29
2018-07-26T13:57:27.710Z,980.26
2018-07-26T13:58:27.717Z,980.19
2018-07-26T13:59:27.677Z,980.16
2018-07-26T14:00:27.667Z,980.23
2018-07-26T14:01:27.658Z,980.24
2018-07-26T14:02:27.687Z,980.13
2018-07-26T14:03:27.633Z,980.12
2018-07-26T14:04:27.625Z,980.13
2018-07-26T14:05:27.617Z,980.09
2018-07-26T14:06:27.602Z,980.14
2018-07-26T14:07:27.599Z,980.16
2018-07-26T14:08:27.579Z,980.12
2018-07-26T14:09:27.581Z,980.12
2018-07-26T14:10:27.563Z,980.18
2018-07-26T14:11:27.550Z,980.20
2018-07-26T14:12:27.555Z,980.16
2018-07-26T14:13:27.528Z,980.18
2018-07-26T14:14:27.517Z,980.16
2018-07-26T14:15:27.594Z,980.16
2018-07-26T14:16:27.495Z,980.31
2018-07-26T14:17:27.504Z,980.20
2018-07-26T14:18:27.475Z,980.13
2018-07-26T14:19:27.465Z,980.12
2018-07-26T14:20:27.454Z,980.11
2018-07-26T14:21:27.447Z,980.04
2018-07-26T14:22:27.475Z,980.09
2018-07-26T14:23:27.435Z,980.01
2018-07-26T14:24:27.412Z,980.07
2018-07-26T14:25:27.402Z,980.08
2018-07-26T14:26:27.390Z,980.11
2018-07-26T14:27:27.379Z,980.12
2018-07-26T14:28:27.379Z,980.14
2018-07-26T14:29:27.395Z,980.17
2018-07-26T14:30:27.352Z,980.15
2018-07-26T14:31:27.343Z,980.10
2018-07-26T14:32:27.328Z,980.05
2018-07-26T14:33:27.332Z,980.05
2018-07-26T14:34:27.306Z,980.02
2018-07-26T14:35:27.298Z,979.96
2018-07-26T14:36:27.285Z,979.89
2018-07-26T14:37:27.276Z,979.95
2018-07-26T14:38:27.274Z,979.97
2018-07-26T14:39:27.255Z,979.91
2018-07-26T14:40:27.241Z,979.91
2018-07-26T14:41:27.231Z,979.93
2018-07-26T14:42:27.220Z,979.92
2018-07-26T14:43:27.239Z,979.89
2018-07-26T14:44:27.199Z,979.87
2018-07-26T14:45:27.187Z,979.92
2018-07-26T14:46:27.178Z,979.90
2018-07-26T14:47:27.169Z,979.92
2018-07-26T14:48:27.158Z,979.86
2018-07-26T14:49:27.159Z,979.87
2018-07-26T14:50:27.132Z,979.83
2018-07-26T14:51:27.122Z,979.82
2018-07-26T14:52:27.114Z,979.85
2018-07-26T14:53:27.102Z,979.83
2018-07-26T14:54:27.151Z,979.80
2018-07-26T14:55:27.082Z,979.79
2018-07-26T14:56:27.065Z,979.76
2018-07-26T14:57:27.054Z,979.76
2018-07-26T14:58:27.046Z,979.75
2018-07-26T14:59:27.051Z,979.76
2018-07-26T15:00:27.025Z,979.76
2018-07-26T15:01:27.011Z,979.76
2018-07-26T15:02:27.000Z,979.77
2018-07-26T15:03:26.987Z,979.73
2018-07-26T15:04:26.991Z,979.76
2018-07-26T15:05:26.968Z,979.69
2018-07-26T15:06:26.958Z,979.71
2018-07-26T15:07:26.948Z,979.76
2018-07-26T15:08:26.932Z,979.75
2018-07-26T15:09:26.933Z,979.77
2018-07-26T15:10:26.912Z,979.89
2018-07-26T15:11:26.896Z,979.83
2018-07-26T15:12:26.892Z,979.84
2018-07-26T15:13:26.876Z,979.82
2018-07-26T15:14:26.876Z,979.84
2018-07-26T15:15:26.851Z,979.90
2018-07-26T15:16:26.844Z,979.85
2018-07-26T15:17:26.832Z,979.85
2018-07-26T15:18:26.819Z,979.82
2018-07-26T15:19:26.826Z,979.86
2018-07-26T15:20:26.807Z,979.86
2018-07-26T15:21:26.792Z,979.88
2018-07-26T15:22:26.777Z,979.82
2018-07-26T15:23:26.767Z,979.84
2018-07-26T15:25:58.956Z,979.79
2018-07-26T15:28:02.404Z,979.77
2018-07-26T15:29:02.350Z,979.78
2018-07-26T15:30:02.354Z,979.82
2018-07-26T15:31:02.347Z,979.84
2018-07-26T15:32:02.322Z,979.86
2018-07-26T15:33:02.304Z,979.88
2018-07-26T15:34:02.296Z,979.84
2018-07-26T15:35:02.293Z,979.78
2018-07-26T15:36:02.268Z,979.77
2018-07-26T15:37:02.263Z,979.81
2018-07-26T15:38:02.246Z,979.82
2018-07-26T15:39:02.243Z,979.82
2018-07-26T15:40:02.257Z,979.85
2018-07-26T15:41:02.217Z,979.84
2018-07-26T15:42:02.211Z,979.76
2018-07-26T15:43:02.193Z,979.77
2018-07-26T15:44:02.184Z,979.70
2018-07-26T15:45:02.189Z,979.73
2018-07-26T15:46:02.161Z,979.75
2018-07-26T15:47:02.208Z,979.72
2018-07-26T15:48:02.140Z,979.67
2018-07-26T15:49:02.129Z,979.74
2018-07-26T15:50:02.164Z,979.73
2018-07-26T15:51:02.120Z,979.82
2018-07-26T15:52:02.095Z,979.82
2018-07-26T15:53:02.085Z,979.74
2018-07-26T15:54:02.079Z,979.84
2018-07-26T15:55:02.061Z,979.76
2018-07-26T15:56:02.068Z,979.77
2018-07-26T15:57:02.046Z,979.70
2018-07-26T15:58:02.029Z,979.75
2018-07-26T15:59:02.035Z,979.71
2018-07-26T16:00:02.009Z,979.67
2018-07-26T16:01:02.010Z,979.62
2018-07-26T16:02:01.989Z,979.66
2018-07-26T16:03:01.976Z,979.69
2018-07-26T16:04:01.967Z,979.68
2018-07-26T16:05:01.953Z,979.67
2018-07-26T16:06:01.953Z,979.66
2018-07-26T16:07:01.931Z,979.64
2018-07-26T16:08:01.920Z,979.63
2018-07-26T16:09:01.911Z,979.62
2018-07-26T16:10:01.899Z,979.63
2018-07-26T16:11:01.902Z,979.64
2018-07-26T16:12:01.876Z,979.63
2018-07-26T16:13:01.866Z,979.61
2018-07-26T16:14:01.855Z,979.65
2018-07-26T16:15:01.851Z,979.62
2018-07-26T16:16:01.858Z,979.65
2018-07-26T16:17:01.827Z,979.67
2018-07-26T16:18:01.923Z,979.63
2018-07-26T16:19:01.802Z,979.67
2018-07-26T16:20:01.788Z,979.67
2018-07-26T16:21:01.780Z,979.64
2018-07-26T16:22:01.826Z,979.69
2018-07-26T16:23:01.757Z,979.65
2018-07-26T16:24:01.746Z,979.66
2018-07-26T16:25:01.738Z,979.67
2018-07-26T16:26:01.725Z,979.70
2018-07-26T16:27:01.729Z,979.69
2018-07-26T16:28:01.701Z,979.64
2018-07-26T16:29:01.739Z,979.66
2018-07-26T16:30:01.680Z,979.62
2018-07-26T16:31:01.669Z,979.62